Tuesday, January 23, 2018, 7:21 AM EST
Back to Local

KPHD, New Philadelphia Clever Fld

Location: New Philadelphia, OH, United States Lat: 40.467
Local Time: 7:21 AM EST (12:21 GMT) Lon: -81.417
Time Zone: US/Eastern Elev: 895 ft

Show me the last for .
Show Decoded

2018-01-23 06:53 METAR KPHD 231153Z AUTO 21005KT 10SM OVC070 08/02 A2963 RMK AO2 SLP036 60012
                 70015 T00780017 10128 20078 53007 =
2018-01-23 05:53 METAR KPHD 231053Z AUTO VRB06KT 10SM BKN080 BKN110 09/04 A2962 RMK AO2 SLP029
                 T00890039 =
2018-01-23 04:53 METAR KPHD 230953Z AUTO 00000KT 10SM OVC065 09/06 A2961 RMK AO2 SLP026 T00940061
                 =
2018-01-23 03:53 METAR KPHD 230853Z AUTO 19005KT 10SM SCT075 BKN090 09/06 A2961 RMK AO2 SLP027
                 60012 T00940061 55008 =
2018-01-23 02:53 METAR KPHD 230753Z AUTO 23003KT 10SM BKN075 OVC100 09/07 A2961 RMK AO2 SLP027
                 T00940072 =
2018-01-23 01:53 METAR KPHD 230653Z AUTO 20008KT 170V230 10SM BKN050 BKN065 OVC090 10/08 A2963
                 RMK AO2 PK WND 23027/0557 WSHFT 0543 LTG DSNT E RAE45 SLP033 P0012 T01000078 =
2018-01-23 01:43 METAR KPHD 230643Z AUTO 22008KT 10SM -RA BKN050 BKN065 OVC085 10/08 A2962 RMK
                 AO2 PK WND 23027/0557 WSHFT 0543 LTG DSNT E AND SE P0012 T01000078 =
2018-01-23 01:03 METAR KPHD 230603Z AUTO 25015G27KT 4SM VCTS RA FEW035 BKN045 OVC055 11/08 A2964
                 RMK AO2 PK WND 23027/0557 WSHFT 0543 LTG DSNT N AND S P0003 T01060078 =
2018-01-23 00:53 METAR KPHD 230553Z AUTO 25016G32KT 8SM VCTS -RA FEW035 BKN050 OVC070 13/07 A2964
                 RMK AO2 PK WND 23032/0550 LTG DSNT N AND S RAB52 PRESRR SLP035 P0000 60001
                 T01330072 10144 20106 55009 =
2018-01-22 23:53 METAR KPHD 230453Z AUTO 14008KT 10SM SCT050 BKN060 BKN095 13/07 A2958 RMK AO2
                 LTG DSNT SW-NW SLP015 T01280067 401670028 =
2018-01-22 22:53 METAR KPHD 230353Z AUTO 14007KT 10SM FEW050 SCT065 OVC085 12/07 A2963 RMK AO2
                 LTG DSNT SW SLP033 T01170072 =
2018-01-22 21:53 METAR KPHD 230253Z AUTO 14007KT 10SM BKN055 OVC070 11/08 A2966 RMK AO2 SLP046
                 60001 T01110078 58035 =
2018-01-22 20:53 METAR KPHD 230153Z AUTO 14007KT 10SM SCT050 OVC070 12/08 A2970 RMK AO2 RAE0057
                 SLP058 P0000 T01170083 =
2018-01-22 19:53 METAR KPHD 230053Z AUTO 16009KT 10SM -RA SCT055 BKN070 OVC090 13/08 A2974 RMK
                 AO2 RAB08 SLP071 P0001 T01280083 =
2018-01-22 18:53 METAR KPHD 222353Z AUTO 16007KT 10SM BKN060 OVC075 13/08 A2977 RMK AO2 RAE44
                 SLP082 P0002 60002 T01280083 10167 20128 58013 =
2018-01-22 17:53 METAR KPHD 222253Z AUTO 17008G15KT 10SM -RA FEW055 OVC075 14/07 A2979 RMK AO2
                 RAB33 SLP089 P0000 T01390072 =
2018-01-22 16:53 METAR KPHD 222153Z AUTO 16006KT 10SM CLR 14/06 A2979 RMK AO2 SLP090 T01440061 =
2018-01-22 15:53 METAR KPHD 222053Z AUTO 17006KT 10SM CLR 16/07 A2981 RMK AO2 SLP095 T01560067
                 56021 =
2018-01-22 14:53 METAR KPHD 221953Z AUTO 19009KT 10SM FEW110 16/07 A2983 RMK AO2 SLP103 T01610067
                 =
2018-01-22 13:53 METAR KPHD 221853Z AUTO 18007KT 10SM FEW120 16/08 A2985 RMK AO2 SLP109 T01610078
                 =
2018-01-22 12:53 METAR KPHD 221753Z AUTO 14006KT 10SM CLR 13/08 A2987 RMK AO2 SLP118 T01330078
                 10133 20056 58033 =
2018-01-22 11:53 METAR KPHD 221653Z AUTO 14006KT 10SM OVC090 12/07 A2993 RMK AO2 SLP139 T01170072
                 =
2018-01-22 10:53 METAR KPHD 221553Z AUTO VRB03KT 10SM BKN090 11/08 A2996 RMK AO2 SLP149 T01110078
                 =
2018-01-22 09:53 METAR KPHD 221453Z AUTO 00000KT 10SM BKN080 08/07 A2997 RMK AO2 SLP153 T00830072
                 56005 =
2018-01-22 08:53 METAR KPHD 221353Z AUTO 14005KT 10SM FEW070 07/07 A2997 RMK AO2 SLP154 T00720067
                 =
2018-01-22 07:53 METAR KPHD 221253Z AUTO 00000KT 5SM BR BKN110 07/06 A2997 RMK AO2 SLP156
                 T00670061 =
2018-01-22 07:45 METAR KPHD 221245Z AUTO 12003KT 6SM BR SCT110 06/06 A2998 RMK AO2 T00610056 =

Support USWX by starting your Amazon purchase here.